sensor_id;sensor_type;location;lat;lon;timestamp;P1;durP1;ratioP1;P2;durP2;ratioP2
24090;SDS011;12272;52.426;17.100;2023-04-16T00:04:29;15.17;;;13.57;;
24090;SDS011;12272;52.426;17.100;2023-04-16T00:09:32;18.30;;;13.50;;
24090;SDS011;12272;52.426;17.100;2023-04-16T00:14:34;19.50;;;14.23;;
24090;SDS011;12272;52.426;17.100;2023-04-16T00:19:37;18.30;;;14.10;;
24090;SDS011;12272;52.426;17.100;2023-04-16T00:24:40;16.37;;;13.50;;
24090;SDS011;12272;52.426;17.100;2023-04-16T00:29:43;14.97;;;12.20;;
24090;SDS011;12272;52.426;17.100;2023-04-16T00:34:45;19.87;;;13.50;;
24090;SDS011;12272;52.426;17.100;2023-04-16T00:39:47;20.17;;;14.97;;
24090;SDS011;12272;52.426;17.100;2023-04-16T00:44:51;18.57;;;14.40;;
24090;SDS011;12272;52.426;17.100;2023-04-16T00:49:53;23.47;;;15.73;;
24090;SDS011;12272;52.426;17.100;2023-04-16T00:54:56;32.00;;;20.40;;
24090;SDS011;12272;52.426;17.100;2023-04-16T01:00:00;32.80;;;22.37;;
24090;SDS011;12272;52.426;17.100;2023-04-16T01:05:03;36.27;;;25.37;;
24090;SDS011;12272;52.426;17.100;2023-04-16T01:10:07;24.97;;;16.07;;
24090;SDS011;12272;52.426;17.100;2023-04-16T01:15:10;25.73;;;18.40;;
24090;SDS011;12272;52.426;17.100;2023-04-16T01:20:12;32.97;;;21.17;;
24090;SDS011;12272;52.426;17.100;2023-04-16T01:25:15;27.23;;;18.33;;
24090;SDS011;12272;52.426;17.100;2023-04-16T01:30:18;23.73;;;16.70;;
24090;SDS011;12272;52.426;17.100;2023-04-16T01:35:38;22.70;;;16.73;;
24090;SDS011;12272;52.426;17.100;2023-04-16T01:40:44;25.13;;;16.40;;
24090;SDS011;12272;52.426;17.100;2023-04-16T01:45:47;23.23;;;16.37;;
24090;SDS011;12272;52.426;17.100;2023-04-16T01:50:49;28.07;;;19.93;;
24090;SDS011;12272;52.426;17.100;2023-04-16T01:55:52;26.67;;;19.10;;
24090;SDS011;12272;52.426;17.100;2023-04-16T02:00:54;25.33;;;17.50;;
24090;SDS011;12272;52.426;17.100;2023-04-16T02:05:57;29.23;;;17.73;;
24090;SDS011;12272;52.426;17.100;2023-04-16T02:11:02;22.40;;;15.53;;
24090;SDS011;12272;52.426;17.100;2023-04-16T02:16:05;20.83;;;15.10;;
24090;SDS011;12272;52.426;17.100;2023-04-16T02:21:22;18.73;;;14.47;;
24090;SDS011;12272;52.426;17.100;2023-04-16T02:26:25;23.53;;;16.50;;
24090;SDS011;12272;52.426;17.100;2023-04-16T02:31:31;26.73;;;15.37;;
24090;SDS011;12272;52.426;17.100;2023-04-16T02:36:34;21.13;;;15.13;;
24090;SDS011;12272;52.426;17.100;2023-04-16T02:41:36;19.63;;;14.13;;
24090;SDS011;12272;52.426;17.100;2023-04-16T02:46:40;24.37;;;15.83;;
24090;SDS011;12272;52.426;17.100;2023-04-16T02:51:42;20.07;;;14.60;;
24090;SDS011;12272;52.426;17.100;2023-04-16T02:56:45;24.87;;;15.70;;
24090;SDS011;12272;52.426;17.100;2023-04-16T03:01:47;21.37;;;13.43;;
24090;SDS011;12272;52.426;17.100;2023-04-16T03:06:50;19.60;;;14.80;;
24090;SDS011;12272;52.426;17.100;2023-04-16T03:11:53;20.60;;;14.90;;
24090;SDS011;12272;52.426;17.100;2023-04-16T03:16:55;26.60;;;16.03;;
24090;SDS011;12272;52.426;17.100;2023-04-16T03:21:58;21.10;;;14.63;;
24090;SDS011;12272;52.426;17.100;2023-04-16T03:27:01;23.40;;;15.37;;
24090;SDS011;12272;52.426;17.100;2023-04-16T03:32:04;25.17;;;18.27;;
24090;SDS011;12272;52.426;17.100;2023-04-16T03:37:07;25.87;;;17.80;;
24090;SDS011;12272;52.426;17.100;2023-04-16T03:42:13;24.93;;;19.23;;
24090;SDS011;12272;52.426;17.100;2023-04-16T03:47:15;23.77;;;18.43;;
24090;SDS011;12272;52.426;17.100;2023-04-16T03:52:20;28.33;;;20.97;;
24090;SDS011;12272;52.426;17.100;2023-04-16T03:57:22;24.37;;;18.73;;
24090;SDS011;12272;52.426;17.100;2023-04-16T04:02:27;25.97;;;18.90;;
24090;SDS011;12272;52.426;17.100;2023-04-16T04:07:30;24.57;;;18.33;;
24090;SDS011;12272;52.426;17.100;2023-04-16T04:12:32;30.10;;;21.50;;
24090;SDS011;12272;52.426;17.100;2023-04-16T04:17:35;24.77;;;19.13;;
24090;SDS011;12272;52.426;17.100;2023-04-16T04:22:38;27.17;;;19.47;;
24090;SDS011;12272;52.426;17.100;2023-04-16T04:27:40;21.77;;;16.97;;
24090;SDS011;12272;52.426;17.100;2023-04-16T04:32:43;25.50;;;19.27;;
24090;SDS011;12272;52.426;17.100;2023-04-16T04:37:46;27.57;;;16.83;;
24090;SDS011;12272;52.426;17.100;2023-04-16T04:42:52;17.67;;;13.47;;
24090;SDS011;12272;52.426;17.100;2023-04-16T04:47:57;20.60;;;15.20;;
24090;SDS011;12272;52.426;17.100;2023-04-16T04:52:59;23.17;;;17.33;;
24090;SDS011;12272;52.426;17.100;2023-04-16T04:58:03;20.53;;;16.07;;
24090;SDS011;12272;52.426;17.100;2023-04-16T05:03:08;20.70;;;14.60;;
24090;SDS011;12272;52.426;17.100;2023-04-16T05:08:12;11.27;;;9.67;;
24090;SDS011;12272;52.426;17.100;2023-04-16T05:13:14;14.23;;;12.47;;
24090;SDS011;12272;52.426;17.100;2023-04-16T05:18:17;15.43;;;11.40;;
24090;SDS011;12272;52.426;17.100;2023-04-16T05:23:19;13.87;;;12.17;;
24090;SDS011;12272;52.426;17.100;2023-04-16T05:28:22;20.50;;;16.23;;
24090;SDS011;12272;52.426;17.100;2023-04-16T05:33:24;20.07;;;15.57;;
24090;SDS011;12272;52.426;17.100;2023-04-16T05:38:27;17.40;;;14.17;;
24090;SDS011;12272;52.426;17.100;2023-04-16T05:43:29;14.93;;;12.57;;
24090;SDS011;12272;52.426;17.100;2023-04-16T05:48:32;20.83;;;15.17;;
24090;SDS011;12272;52.426;17.100;2023-04-16T05:53:35;8.77;;;7.87;;
24090;SDS011;12272;52.426;17.100;2023-04-16T05:58:37;20.40;;;15.53;;
24090;SDS011;12272;52.426;17.100;2023-04-16T06:03:39;22.23;;;16.57;;
24090;SDS011;12272;52.426;17.100;2023-04-16T06:08:42;21.10;;;17.60;;
24090;SDS011;12272;52.426;17.100;2023-04-16T06:13:45;20.30;;;16.60;;
24090;SDS011;12272;52.426;17.100;2023-04-16T06:18:47;20.70;;;15.93;;
24090;SDS011;12272;52.426;17.100;2023-04-16T06:23:50;23.63;;;18.80;;
24090;SDS011;12272;52.426;17.100;2023-04-16T06:28:52;13.33;;;10.70;;
24090;SDS011;12272;52.426;17.100;2023-04-16T06:33:55;15.80;;;12.13;;
24090;SDS011;12272;52.426;17.100;2023-04-16T06:38:58;18.63;;;14.80;;
24090;SDS011;12272;52.426;17.100;2023-04-16T06:44:00;27.40;;;18.87;;
24090;SDS011;12272;52.426;17.100;2023-04-16T06:49:03;22.57;;;16.70;;
24090;SDS011;12272;52.426;17.100;2023-04-16T06:54:06;17.23;;;12.97;;
24090;SDS011;12272;52.426;17.100;2023-04-16T06:59:08;24.60;;;17.60;;
24090;SDS011;12272;52.426;17.100;2023-04-16T07:04:12;20.33;;;16.57;;
24090;SDS011;12272;52.426;17.100;2023-04-16T07:09:14;14.20;;;9.37;;
24090;SDS011;12272;52.426;17.100;2023-04-16T07:14:18;20.57;;;13.87;;
24090;SDS011;12272;52.426;17.100;2023-04-16T07:19:21;21.17;;;14.90;;
24090;SDS011;12272;52.426;17.100;2023-04-16T07:24:23;19.70;;;15.87;;
24090;SDS011;12272;52.426;17.100;2023-04-16T07:29:26;18.93;;;14.13;;
24090;SDS011;12272;52.426;17.100;2023-04-16T07:34:29;21.27;;;16.27;;
24090;SDS011;12272;52.426;17.100;2023-04-16T07:39:31;21.57;;;17.07;;
24090;SDS011;12272;52.426;17.100;2023-04-16T07:44:34;21.70;;;16.33;;
24090;SDS011;12272;52.426;17.100;2023-04-16T07:49:36;19.87;;;15.63;;
24090;SDS011;12272;52.426;17.100;2023-04-16T07:54:39;20.40;;;15.43;;
24090;SDS011;12272;52.426;17.100;2023-04-16T07:59:42;21.10;;;16.60;;
24090;SDS011;12272;52.426;17.100;2023-04-16T08:04:44;25.93;;;18.33;;
24090;SDS011;12272;52.426;17.100;2023-04-16T08:09:48;25.97;;;18.83;;
24090;SDS011;12272;52.426;17.100;2023-04-16T08:14:54;23.17;;;18.33;;
24090;SDS011;12272;52.426;17.100;2023-04-16T08:19:56;24.43;;;18.87;;
24090;SDS011;12272;52.426;17.100;2023-04-16T08:24:59;22.40;;;15.30;;
24090;SDS011;12272;52.426;17.100;2023-04-16T08:30:01;28.20;;;20.07;;
24090;SDS011;12272;52.426;17.100;2023-04-16T08:35:04;23.33;;;14.63;;
24090;SDS011;12272;52.426;17.100;2023-04-16T08:40:07;21.07;;;14.87;;
24090;SDS011;12272;52.426;17.100;2023-04-16T08:45:13;13.80;;;11.67;;
24090;SDS011;12272;52.426;17.100;2023-04-16T08:50:24;16.70;;;12.57;;
24090;SDS011;12272;52.426;17.100;2023-04-16T09:00:48;9.27;;;7.10;;
24090;SDS011;12272;52.426;17.100;2023-04-16T09:05:51;8.77;;;6.60;;
24090;SDS011;12272;52.426;17.100;2023-04-16T09:10:56;15.43;;;10.43;;
24090;SDS011;12272;52.426;17.100;2023-04-16T09:15:59;14.07;;;10.80;;
24090;SDS011;12272;52.426;17.100;2023-04-16T09:21:02;8.93;;;8.03;;
24090;SDS011;12272;52.426;17.100;2023-04-16T09:26:05;10.73;;;7.37;;
24090;SDS011;12272;52.426;17.100;2023-04-16T09:31:15;13.07;;;9.93;;
24090;SDS011;12272;52.426;17.100;2023-04-16T09:36:21;14.00;;;11.43;;
24090;SDS011;12272;52.426;17.100;2023-04-16T09:41:25;13.37;;;8.80;;
24090;SDS011;12272;52.426;17.100;2023-04-16T09:46:30;17.13;;;11.70;;
24090;SDS011;12272;52.426;17.100;2023-04-16T09:51:39;8.67;;;7.13;;
24090;SDS011;12272;52.426;17.100;2023-04-16T09:56:43;12.00;;;10.63;;
24090;SDS011;12272;52.426;17.100;2023-04-16T10:01:47;13.60;;;10.30;;
24090;SDS011;12272;52.426;17.100;2023-04-16T10:07:01;10.97;;;9.30;;
24090;SDS011;12272;52.426;17.100;2023-04-16T10:12:07;5.93;;;4.87;;
24090;SDS011;12272;52.426;17.100;2023-04-16T10:17:10;10.60;;;8.60;;
24090;SDS011;12272;52.426;17.100;2023-04-16T10:22:13;10.47;;;8.93;;
24090;SDS011;12272;52.426;17.100;2023-04-16T10:27:17;10.20;;;9.10;;
24090;SDS011;12272;52.426;17.100;2023-04-16T10:32:21;10.43;;;8.57;;
24090;SDS011;12272;52.426;17.100;2023-04-16T10:37:29;11.13;;;8.97;;
24090;SDS011;12272;52.426;17.100;2023-04-16T10:42:32;12.50;;;8.57;;
24090;SDS011;12272;52.426;17.100;2023-04-16T10:47:38;9.63;;;8.20;;
24090;SDS011;12272;52.426;17.100;2023-04-16T10:52:41;11.37;;;8.43;;
24090;SDS011;12272;52.426;17.100;2023-04-16T10:57:44;11.43;;;8.37;;
24090;SDS011;12272;52.426;17.100;2023-04-16T11:02:51;12.17;;;9.13;;
24090;SDS011;12272;52.426;17.100;2023-04-16T11:07:55;9.07;;;8.03;;
24090;SDS011;12272;52.426;17.100;2023-04-16T11:13:14;9.57;;;8.00;;
24090;SDS011;12272;52.426;17.100;2023-04-16T11:18:18;8.43;;;6.97;;
24090;SDS011;12272;52.426;17.100;2023-04-16T11:23:21;9.80;;;8.17;;
24090;SDS011;12272;52.426;17.100;2023-04-16T11:28:33;9.53;;;8.63;;
24090;SDS011;12272;52.426;17.100;2023-04-16T11:33:36;10.13;;;8.77;;
24090;SDS011;12272;52.426;17.100;2023-04-16T11:38:40;10.90;;;8.87;;
24090;SDS011;12272;52.426;17.100;2023-04-16T11:43:43;10.40;;;9.30;;
24090;SDS011;12272;52.426;17.100;2023-04-16T11:48:50;11.43;;;9.37;;
24090;SDS011;12272;52.426;17.100;2023-04-16T11:53:54;13.13;;;10.20;;
24090;SDS011;12272;52.426;17.100;2023-04-16T11:59:10;7.37;;;6.67;;
24090;SDS011;12272;52.426;17.100;2023-04-16T12:04:15;7.90;;;6.77;;
24090;SDS011;12272;52.426;17.100;2023-04-16T12:09:23;9.07;;;8.17;;
24090;SDS011;12272;52.426;17.100;2023-04-16T12:14:26;9.80;;;8.30;;
24090;SDS011;12272;52.426;17.100;2023-04-16T12:19:30;8.10;;;7.20;;
24090;SDS011;12272;52.426;17.100;2023-04-16T12:24:32;8.10;;;7.03;;
24090;SDS011;12272;52.426;17.100;2023-04-16T12:29:37;10.50;;;7.00;;
24090;SDS011;12272;52.426;17.100;2023-04-16T12:34:48;8.57;;;6.77;;
24090;SDS011;12272;52.426;17.100;2023-04-16T12:39:52;7.23;;;5.37;;
24090;SDS011;12272;52.426;17.100;2023-04-16T12:44:55;6.43;;;5.27;;
24090;SDS011;12272;52.426;17.100;2023-04-16T12:49:57;5.40;;;4.47;;
24090;SDS011;12272;52.426;17.100;2023-04-16T12:55:00;3.50;;;3.20;;
24090;SDS011;12272;52.426;17.100;2023-04-16T13:00:03;4.30;;;3.33;;
24090;SDS011;12272;52.426;17.100;2023-04-16T13:05:09;9.23;;;5.40;;
24090;SDS011;12272;52.426;17.100;2023-04-16T13:10:12;5.60;;;4.40;;
24090;SDS011;12272;52.426;17.100;2023-04-16T13:15:14;4.17;;;3.77;;
24090;SDS011;12272;52.426;17.100;2023-04-16T13:20:17;4.37;;;3.57;;
24090;SDS011;12272;52.426;17.100;2023-04-16T13:25:19;3.10;;;2.67;;
24090;SDS011;12272;52.426;17.100;2023-04-16T13:30:22;2.83;;;2.63;;
24090;SDS011;12272;52.426;17.100;2023-04-16T13:35:25;2.97;;;2.67;;
24090;SDS011;12272;52.426;17.100;2023-04-16T13:40:28;2.60;;;2.40;;
24090;SDS011;12272;52.426;17.100;2023-04-16T13:45:30;4.43;;;4.00;;
24090;SDS011;12272;52.426;17.100;2023-04-16T13:50:33;4.93;;;4.40;;
24090;SDS011;12272;52.426;17.100;2023-04-16T13:55:37;5.40;;;4.03;;
24090;SDS011;12272;52.426;17.100;2023-04-16T14:00:40;5.57;;;5.00;;
24090;SDS011;12272;52.426;17.100;2023-04-16T14:05:46;6.23;;;5.33;;
24090;SDS011;12272;52.426;17.100;2023-04-16T14:10:49;4.77;;;4.20;;
24090;SDS011;12272;52.426;17.100;2023-04-16T14:15:54;4.07;;;3.67;;
24090;SDS011;12272;52.426;17.100;2023-04-16T14:20:57;4.67;;;4.20;;
24090;SDS011;12272;52.426;17.100;2023-04-16T14:26:02;8.63;;;5.57;;
24090;SDS011;12272;52.426;17.100;2023-04-16T14:31:05;8.43;;;7.53;;
24090;SDS011;12272;52.426;17.100;2023-04-16T14:36:08;8.73;;;7.40;;
24090;SDS011;12272;52.426;17.100;2023-04-16T14:41:11;6.23;;;5.63;;
24090;SDS011;12272;52.426;17.100;2023-04-16T14:46:13;7.03;;;6.20;;
24090;SDS011;12272;52.426;17.100;2023-04-16T14:51:20;7.83;;;6.87;;
24090;SDS011;12272;52.426;17.100;2023-04-16T14:56:22;7.77;;;7.00;;
24090;SDS011;12272;52.426;17.100;2023-04-16T15:01:25;13.10;;;10.17;;
24090;SDS011;12272;52.426;17.100;2023-04-16T15:06:28;8.00;;;6.60;;
24090;SDS011;12272;52.426;17.100;2023-04-16T15:11:30;9.73;;;6.03;;
24090;SDS011;12272;52.426;17.100;2023-04-16T15:16:33;12.83;;;10.70;;
24090;SDS011;12272;52.426;17.100;2023-04-16T15:21:36;17.30;;;12.10;;
24090;SDS011;12272;52.426;17.100;2023-04-16T15:26:38;13.57;;;10.77;;
24090;SDS011;12272;52.426;17.100;2023-04-16T15:31:41;29.13;;;14.00;;
24090;SDS011;12272;52.426;17.100;2023-04-16T15:36:44;29.73;;;15.97;;
24090;SDS011;12272;52.426;17.100;2023-04-16T15:41:46;38.47;;;23.93;;
24090;SDS011;12272;52.426;17.100;2023-04-16T15:47:01;9.23;;;5.97;;
24090;SDS011;12272;52.426;17.100;2023-04-16T15:52:04;22.33;;;15.37;;
24090;SDS011;12272;52.426;17.100;2023-04-16T15:57:07;15.00;;;9.57;;
24090;SDS011;12272;52.426;17.100;2023-04-16T16:02:10;14.23;;;10.97;;
24090;SDS011;12272;52.426;17.100;2023-04-16T16:07:14;20.97;;;15.70;;
24090;SDS011;12272;52.426;17.100;2023-04-16T16:12:20;26.63;;;17.07;;
24090;SDS011;12272;52.426;17.100;2023-04-16T16:17:23;25.97;;;19.23;;
24090;SDS011;12272;52.426;17.100;2023-04-16T16:22:26;15.07;;;9.40;;
24090;SDS011;12272;52.426;17.100;2023-04-16T16:27:29;25.03;;;15.90;;
24090;SDS011;12272;52.426;17.100;2023-04-16T16:32:32;32.07;;;20.23;;
24090;SDS011;12272;52.426;17.100;2023-04-16T16:37:34;37.20;;;22.00;;
24090;SDS011;12272;52.426;17.100;2023-04-16T16:42:37;33.47;;;22.90;;
24090;SDS011;12272;52.426;17.100;2023-04-16T16:47:39;24.90;;;17.20;;
24090;SDS011;12272;52.426;17.100;2023-04-16T16:52:42;34.43;;;22.77;;
24090;SDS011;12272;52.426;17.100;2023-04-16T16:57:45;15.03;;;10.07;;
24090;SDS011;12272;52.426;17.100;2023-04-16T17:02:48;35.27;;;22.87;;
24090;SDS011;12272;52.426;17.100;2023-04-16T17:07:53;24.30;;;13.23;;
24090;SDS011;12272;52.426;17.100;2023-04-16T17:12:56;34.63;;;21.60;;
24090;SDS011;12272;52.426;17.100;2023-04-16T17:17:58;38.27;;;23.20;;
24090;SDS011;12272;52.426;17.100;2023-04-16T17:23:01;37.07;;;23.40;;
24090;SDS011;12272;52.426;17.100;2023-04-16T17:28:04;16.23;;;8.87;;
24090;SDS011;12272;52.426;17.100;2023-04-16T17:33:06;32.37;;;22.33;;
24090;SDS011;12272;52.426;17.100;2023-04-16T17:38:09;36.97;;;23.53;;
24090;SDS011;12272;52.426;17.100;2023-04-16T17:43:12;36.37;;;23.93;;
24090;SDS011;12272;52.426;17.100;2023-04-16T17:48:14;33.67;;;19.17;;
24090;SDS011;12272;52.426;17.100;2023-04-16T17:53:17;38.50;;;23.13;;
24090;SDS011;12272;52.426;17.100;2023-04-16T17:58:20;36.33;;;22.47;;
24090;SDS011;12272;52.426;17.100;2023-04-16T18:03:22;38.27;;;24.10;;
24090;SDS011;12272;52.426;17.100;2023-04-16T18:08:25;35.27;;;22.23;;
24090;SDS011;12272;52.426;17.100;2023-04-16T18:13:28;36.10;;;23.33;;
24090;SDS011;12272;52.426;17.100;2023-04-16T18:18:30;35.37;;;22.27;;
24090;SDS011;12272;52.426;17.100;2023-04-16T18:23:33;37.43;;;23.77;;
24090;SDS011;12272;52.426;17.100;2023-04-16T18:28:35;36.00;;;21.60;;
24090;SDS011;12272;52.426;17.100;2023-04-16T18:33:38;38.87;;;24.53;;
24090;SDS011;12272;52.426;17.100;2023-04-16T18:38:56;35.47;;;22.83;;
24090;SDS011;12272;52.426;17.100;2023-04-16T18:44:03;43.22;;;29.90;;
24090;SDS011;12272;52.426;17.100;2023-04-16T18:49:05;32.57;;;20.93;;
24090;SDS011;12272;52.426;17.100;2023-04-16T18:54:08;37.50;;;23.63;;
24090;SDS011;12272;52.426;17.100;2023-04-16T18:59:10;41.07;;;26.60;;
24090;SDS011;12272;52.426;17.100;2023-04-16T19:04:13;36.60;;;25.07;;
24090;SDS011;12272;52.426;17.100;2023-04-16T19:09:16;37.20;;;23.43;;
24090;SDS011;12272;52.426;17.100;2023-04-16T19:14:18;30.67;;;21.00;;
24090;SDS011;12272;52.426;17.100;2023-04-16T19:19:21;35.80;;;22.60;;
24090;SDS011;12272;52.426;17.100;2023-04-16T19:24:23;33.07;;;22.23;;
24090;SDS011;12272;52.426;17.100;2023-04-16T19:29:26;32.13;;;21.97;;
24090;SDS011;12272;52.426;17.100;2023-04-16T19:34:28;34.03;;;23.53;;
24090;SDS011;12272;52.426;17.100;2023-04-16T19:39:31;35.27;;;23.03;;
24090;SDS011;12272;52.426;17.100;2023-04-16T19:44:34;38.80;;;25.00;;
24090;SDS011;12272;52.426;17.100;2023-04-16T19:49:37;37.67;;;22.67;;
24090;SDS011;12272;52.426;17.100;2023-04-16T19:54:39;27.87;;;16.87;;
24090;SDS011;12272;52.426;17.100;2023-04-16T19:59:42;34.00;;;21.63;;
24090;SDS011;12272;52.426;17.100;2023-04-16T20:04:45;32.30;;;18.97;;
24090;SDS011;12272;52.426;17.100;2023-04-16T20:09:49;35.17;;;21.70;;
24090;SDS011;12272;52.426;17.100;2023-04-16T20:14:51;34.53;;;21.97;;
24090;SDS011;12272;52.426;17.100;2023-04-16T20:19:54;32.50;;;20.80;;
24090;SDS011;12272;52.426;17.100;2023-04-16T20:25:01;33.03;;;20.20;;
24090;SDS011;12272;52.426;17.100;2023-04-16T20:30:04;26.50;;;17.40;;
24090;SDS011;12272;52.426;17.100;2023-04-16T20:35:07;32.17;;;20.70;;
24090;SDS011;12272;52.426;17.100;2023-04-16T20:40:12;29.47;;;19.50;;
24090;SDS011;12272;52.426;17.100;2023-04-16T20:45:15;29.27;;;18.10;;
24090;SDS011;12272;52.426;17.100;2023-04-16T20:50:19;29.57;;;19.70;;
24090;SDS011;12272;52.426;17.100;2023-04-16T20:55:22;23.00;;;15.20;;
24090;SDS011;12272;52.426;17.100;2023-04-16T21:00:25;27.10;;;17.33;;
24090;SDS011;12272;52.426;17.100;2023-04-16T21:05:27;28.90;;;18.80;;
24090;SDS011;12272;52.426;17.100;2023-04-16T21:10:30;31.00;;;19.27;;
24090;SDS011;12272;52.426;17.100;2023-04-16T21:15:33;30.27;;;19.00;;
24090;SDS011;12272;52.426;17.100;2023-04-16T21:20:36;27.13;;;16.80;;
24090;SDS011;12272;52.426;17.100;2023-04-16T21:25:39;25.23;;;16.47;;
24090;SDS011;12272;52.426;17.100;2023-04-16T21:30:42;18.93;;;14.43;;
24090;SDS011;12272;52.426;17.100;2023-04-16T21:35:49;30.63;;;19.07;;
24090;SDS011;12272;52.426;17.100;2023-04-16T21:40:52;29.50;;;20.13;;
24090;SDS011;12272;52.426;17.100;2023-04-16T21:45:56;30.73;;;19.47;;
24090;SDS011;12272;52.426;17.100;2023-04-16T21:51:00;18.83;;;12.83;;
24090;SDS011;12272;52.426;17.100;2023-04-16T21:56:07;23.80;;;15.30;;
24090;SDS011;12272;52.426;17.100;2023-04-16T22:01:10;30.70;;;19.53;;
24090;SDS011;12272;52.426;17.100;2023-04-16T22:06:13;22.93;;;16.40;;
24090;SDS011;12272;52.426;17.100;2023-04-16T22:11:17;27.47;;;17.30;;
24090;SDS011;12272;52.426;17.100;2023-04-16T22:16:20;17.10;;;12.03;;
24090;SDS011;12272;52.426;17.100;2023-04-16T22:21:22;24.03;;;15.73;;
24090;SDS011;12272;52.426;17.100;2023-04-16T22:26:25;22.67;;;15.33;;
24090;SDS011;12272;52.426;17.100;2023-04-16T22:31:28;21.03;;;14.23;;
24090;SDS011;12272;52.426;17.100;2023-04-16T22:36:31;22.53;;;14.53;;
24090;SDS011;12272;52.426;17.100;2023-04-16T22:41:34;19.50;;;13.70;;
24090;SDS011;12272;52.426;17.100;2023-04-16T22:46:37;24.60;;;13.57;;
24090;SDS011;12272;52.426;17.100;2023-04-16T22:51:39;21.57;;;14.80;;
24090;SDS011;12272;52.426;17.100;2023-04-16T22:56:42;16.23;;;11.47;;
24090;SDS011;12272;52.426;17.100;2023-04-16T23:01:44;17.00;;;11.97;;
24090;SDS011;12272;52.426;17.100;2023-04-16T23:06:47;18.10;;;13.37;;
24090;SDS011;12272;52.426;17.100;2023-04-16T23:11:50;16.37;;;12.70;;
24090;SDS011;12272;52.426;17.100;2023-04-16T23:16:52;18.40;;;13.10;;
24090;SDS011;12272;52.426;17.100;2023-04-16T23:21:55;15.70;;;12.37;;
24090;SDS011;12272;52.426;17.100;2023-04-16T23:26:57;17.37;;;12.63;;
24090;SDS011;12272;52.426;17.100;2023-04-16T23:32:00;22.17;;;13.47;;
24090;SDS011;12272;52.426;17.100;2023-04-16T23:37:03;17.03;;;12.77;;
24090;SDS011;12272;52.426;17.100;2023-04-16T23:42:05;21.27;;;14.77;;
24090;SDS011;12272;52.426;17.100;2023-04-16T23:47:08;13.67;;;11.20;;
24090;SDS011;12272;52.426;17.100;2023-04-16T23:52:10;14.87;;;11.63;;
24090;SDS011;12272;52.426;17.100;2023-04-16T23:57:13;22.17;;;13.73;;
